createdAt,value
2023-03-03T00:01:59.707Z,17.43
2023-03-03T00:04:27.542Z,16.30
2023-03-03T00:06:55.306Z,19.07
2023-03-03T00:09:23.109Z,22.07
2023-03-03T00:11:55.919Z,20.27
2023-03-03T00:14:29.805Z,18.77
2023-03-03T00:16:58.354Z,24.57
2023-03-03T00:19:26.189Z,18.80
2023-03-03T00:21:55.749Z,23.60
2023-03-03T00:24:24.664Z,21.70
2023-03-03T00:26:55.378Z,21.30
2023-03-03T00:29:31.877Z,19.73
2023-03-03T00:32:21.176Z,27.20
2023-03-03T00:34:50.036Z,19.80
2023-03-03T00:37:27.831Z,18.73
2023-03-03T00:40:02.684Z,20.77
2023-03-03T00:42:30.401Z,15.70
2023-03-03T00:45:00.172Z,18.47
2023-03-03T00:47:32.769Z,22.37
2023-03-03T00:50:21.178Z,18.57
2023-03-03T00:53:00.625Z,20.58
2023-03-03T00:55:28.416Z,22.03
2023-03-03T00:57:56.142Z,23.27
2023-03-03T01:00:25.221Z,17.87
2023-03-03T01:02:53.150Z,19.33
2023-03-03T01:05:22.014Z,18.17
2023-03-03T01:07:49.761Z,20.73
2023-03-03T01:10:17.816Z,22.63
2023-03-03T01:12:45.580Z,17.90
2023-03-03T01:15:14.788Z,24.17
2023-03-03T01:17:44.326Z,20.20
2023-03-03T01:20:15.521Z,19.17
2023-03-03T01:22:43.587Z,16.90
2023-03-03T01:25:11.954Z,19.60
2023-03-03T01:27:40.241Z,19.63
2023-03-03T01:30:10.501Z,17.77
2023-03-03T01:32:38.327Z,19.53
2023-03-03T01:35:08.226Z,19.20
2023-03-03T01:37:36.266Z,19.03
2023-03-03T01:40:04.782Z,15.70
2023-03-03T01:42:32.574Z,18.50
2023-03-03T01:45:16.530Z,20.77
2023-03-03T01:47:48.073Z,26.20
2023-03-03T01:50:27.613Z,19.63
2023-03-03T01:52:56.526Z,21.13
2023-03-03T01:55:31.321Z,21.63
2023-03-03T01:58:03.408Z,25.70
2023-03-03T02:00:32.724Z,26.97
2023-03-03T02:03:00.634Z,21.93
2023-03-03T02:05:30.496Z,24.10
2023-03-03T02:07:58.425Z,24.80
2023-03-03T02:10:26.741Z,20.97
2023-03-03T02:12:56.201Z,19.43
2023-03-03T02:15:32.104Z,23.83
2023-03-03T02:18:02.682Z,25.03
2023-03-03T02:20:44.270Z,23.37
2023-03-03T02:23:19.110Z,20.53
2023-03-03T02:25:53.184Z,27.83
2023-03-03T02:28:23.278Z,22.57
2023-03-03T02:30:51.115Z,26.30
2023-03-03T02:33:18.897Z,24.10
2023-03-03T02:35:46.683Z,25.03
2023-03-03T02:38:22.812Z,26.03
2023-03-03T02:41:03.937Z,21.00
2023-03-03T02:43:40.363Z,23.23
2023-03-03T02:46:08.293Z,26.20
2023-03-03T02:48:35.993Z,26.13
2023-03-03T02:51:03.746Z,24.03
2023-03-03T02:53:31.445Z,26.77
2023-03-03T02:55:59.185Z,25.60
2023-03-03T02:58:27.016Z,25.63
2023-03-03T03:00:56.182Z,30.07
2023-03-03T03:03:24.028Z,34.73
2023-03-03T03:05:51.880Z,32.17
2023-03-03T03:08:19.603Z,32.70
2023-03-03T03:10:47.370Z,33.70
2023-03-03T03:13:15.099Z,34.10
2023-03-03T03:15:42.849Z,35.57
2023-03-03T03:18:11.965Z,34.07
2023-03-03T03:20:41.503Z,32.37
2023-03-03T03:23:09.719Z,34.17
2023-03-03T03:25:42.623Z,32.00
2023-03-03T03:28:10.349Z,32.87
2023-03-03T03:30:38.105Z,32.90
2023-03-03T03:33:06.861Z,25.40
2023-03-03T03:35:36.768Z,33.70
2023-03-03T03:38:04.949Z,28.10
2023-03-03T03:40:32.664Z,25.30
2023-03-03T03:43:00.400Z,29.60
2023-03-03T03:45:28.162Z,27.47
2023-03-03T03:47:55.877Z,28.13
2023-03-03T03:50:23.657Z,33.20
2023-03-03T03:52:52.718Z,30.63
2023-03-03T03:55:20.494Z,36.57
2023-03-03T03:57:48.223Z,44.23
2023-03-03T04:00:16.595Z,29.90
2023-03-03T04:02:44.445Z,34.07
2023-03-03T04:05:12.353Z,33.37
2023-03-03T04:07:40.200Z,36.47
2023-03-03T04:10:10.685Z,35.17
2023-03-03T04:12:39.190Z,37.40
2023-03-03T04:15:09.206Z,36.20
2023-03-03T04:17:36.977Z,29.40
2023-03-03T04:20:06.080Z,31.07
2023-03-03T04:22:35.992Z,32.07
2023-03-03T04:25:05.142Z,36.33
2023-03-03T04:27:34.813Z,36.20
2023-03-03T04:30:03.230Z,33.03
2023-03-03T04:32:31.615Z,31.67
2023-03-03T04:35:07.526Z,32.87
2023-03-03T04:37:37.272Z,30.80
2023-03-03T04:40:07.079Z,24.80
2023-03-03T04:42:36.802Z,39.33
2023-03-03T04:45:05.287Z,36.00
2023-03-03T04:47:33.493Z,34.37
2023-03-03T04:50:01.750Z,35.47
2023-03-03T04:52:29.828Z,39.73
2023-03-03T04:54:57.610Z,35.63
2023-03-03T04:57:25.386Z,41.70
2023-03-03T04:59:54.488Z,39.37
2023-03-03T05:02:22.296Z,34.53
2023-03-03T05:04:50.070Z,38.03
2023-03-03T05:07:19.182Z,37.33
2023-03-03T05:09:46.916Z,41.13
2023-03-03T05:12:14.671Z,42.23
2023-03-03T05:14:42.549Z,42.10
2023-03-03T05:17:11.678Z,37.70
2023-03-03T05:19:39.384Z,42.23
2023-03-03T05:22:07.488Z,41.63
2023-03-03T05:24:35.210Z,42.20
2023-03-03T05:27:03.410Z,43.00
2023-03-03T05:29:31.573Z,38.33
2023-03-03T05:31:59.556Z,37.97
2023-03-03T05:34:28.739Z,34.00
2023-03-03T05:36:56.479Z,34.50
2023-03-03T05:39:24.314Z,32.13
2023-03-03T05:41:52.122Z,41.30
2023-03-03T05:44:20.789Z,44.10
2023-03-03T05:46:48.721Z,33.67
2023-03-03T05:49:16.493Z,40.87
2023-03-03T05:51:45.556Z,40.57
2023-03-03T05:54:13.278Z,38.90
2023-03-03T05:56:40.995Z,37.67
2023-03-03T05:59:08.799Z,33.43
2023-03-03T06:01:36.620Z,33.27
2023-03-03T06:04:04.516Z,32.27
2023-03-03T06:06:32.391Z,29.80
2023-03-03T06:09:01.537Z,31.43
2023-03-03T06:11:29.290Z,28.30
2023-03-03T06:13:57.125Z,34.28
2023-03-03T06:16:24.964Z,29.43
2023-03-03T06:18:52.678Z,29.27
2023-03-03T06:21:20.433Z,35.40
2023-03-03T06:23:48.141Z,27.67
2023-03-03T06:26:17.237Z,30.10
2023-03-03T06:28:44.958Z,31.97
2023-03-03T06:31:12.666Z,22.03
2023-03-03T06:33:42.154Z,21.33
2023-03-03T06:36:11.007Z,21.87
2023-03-03T06:38:38.881Z,23.97
2023-03-03T06:41:07.389Z,24.00
2023-03-03T06:43:36.995Z,19.87
2023-03-03T06:46:04.918Z,20.73
2023-03-03T06:48:33.870Z,20.27
2023-03-03T06:51:03.746Z,20.00
2023-03-03T06:53:34.844Z,18.90
2023-03-03T06:56:03.309Z,19.70
2023-03-03T06:58:31.241Z,19.47
2023-03-03T07:01:01.968Z,19.33
2023-03-03T07:03:35.049Z,19.50
2023-03-03T07:06:06.067Z,18.03
2023-03-03T07:08:33.983Z,19.77
2023-03-03T07:11:09.157Z,19.70
2023-03-03T07:13:41.607Z,20.00
2023-03-03T07:16:15.222Z,19.97
2023-03-03T07:18:51.606Z,19.07
2023-03-03T07:21:21.567Z,23.80
2023-03-03T07:23:50.702Z,22.60
2023-03-03T07:26:20.176Z,26.30
2023-03-03T07:28:54.999Z,23.43
2023-03-03T07:31:34.887Z,27.17
2023-03-03T07:34:15.895Z,25.80
2023-03-03T07:36:44.236Z,25.80
2023-03-03T07:39:27.318Z,22.87
2023-03-03T07:42:00.642Z,23.60
2023-03-03T07:44:34.843Z,24.23
2023-03-03T07:47:17.883Z,21.03
2023-03-03T07:49:45.882Z,30.80
2023-03-03T07:52:29.436Z,25.10
2023-03-03T07:54:58.781Z,24.67
2023-03-03T07:57:28.662Z,25.87
2023-03-03T08:00:02.900Z,32.97
2023-03-03T08:02:44.874Z,37.77
2023-03-03T08:05:29.713Z,39.70
2023-03-03T08:08:07.537Z,34.50
2023-03-03T08:10:43.507Z,37.00
2023-03-03T08:13:18.942Z,40.03
2023-03-03T08:15:47.688Z,38.70
2023-03-03T08:18:24.744Z,37.80
2023-03-03T08:20:55.446Z,39.07
2023-03-03T08:23:23.481Z,50.23
2023-03-03T08:25:53.030Z,38.80
2023-03-03T08:28:21.992Z,36.00
2023-03-03T08:30:50.586Z,27.03
2023-03-03T08:33:20.006Z,35.00
2023-03-03T08:35:48.274Z,44.60
2023-03-03T08:38:18.049Z,34.33
2023-03-03T08:40:46.465Z,44.90
2023-03-03T08:43:17.235Z,41.00
2023-03-03T08:45:46.254Z,48.77
2023-03-03T08:48:14.270Z,37.80
2023-03-03T08:50:43.954Z,37.70
2023-03-03T08:53:12.258Z,37.03
2023-03-03T08:55:40.101Z,32.23
2023-03-03T08:58:07.866Z,34.30
2023-03-03T09:00:36.051Z,33.20
2023-03-03T09:03:03.864Z,36.53
2023-03-03T09:05:31.600Z,31.57
2023-03-03T09:08:01.357Z,30.40
2023-03-03T09:10:31.770Z,31.20
2023-03-03T09:13:01.855Z,27.23
2023-03-03T09:15:31.146Z,28.23
2023-03-03T09:18:00.404Z,26.37
2023-03-03T09:20:37.358Z,30.43
2023-03-03T09:23:31.524Z,24.63
2023-03-03T09:26:12.406Z,24.77
2023-03-03T09:28:40.217Z,30.87
2023-03-03T09:31:25.414Z,21.70
2023-03-03T09:33:57.575Z,24.43
2023-03-03T09:36:27.930Z,25.47
2023-03-03T09:38:58.725Z,22.90
2023-03-03T09:41:47.005Z,29.80
2023-03-03T09:44:28.016Z,26.60
2023-03-03T09:47:11.643Z,25.60
2023-03-03T09:49:51.181Z,27.80
2023-03-03T09:52:29.088Z,23.53
2023-03-03T09:55:08.283Z,26.93
2023-03-03T09:57:51.816Z,28.83
2023-03-03T10:00:37.102Z,32.00
2023-03-03T10:03:34.666Z,28.43
2023-03-03T10:06:08.824Z,29.33
2023-03-03T10:08:52.984Z,27.63
2023-03-03T10:11:33.117Z,23.80
2023-03-03T10:14:12.222Z,32.30
2023-03-03T10:17:06.841Z,27.53
2023-03-03T10:19:39.214Z,28.40
2023-03-03T10:22:20.660Z,28.20
2023-03-03T10:24:59.824Z,27.50
2023-03-03T10:27:42.341Z,30.67
2023-03-03T10:30:24.177Z,42.67
2023-03-03T10:33:02.166Z,36.63
2023-03-03T10:36:07.322Z,30.83
2023-03-03T10:38:50.544Z,35.03
2023-03-03T10:41:59.392Z,34.80
2023-03-03T10:44:43.661Z,34.57
2023-03-03T10:47:37.378Z,33.90
2023-03-03T10:50:17.798Z,28.40
2023-03-03T10:52:49.757Z,32.47
2023-03-03T10:55:39.257Z,38.40
2023-03-03T10:58:47.216Z,36.17
2023-03-03T11:01:24.923Z,33.80
2023-03-03T11:04:09.607Z,37.70
2023-03-03T11:06:46.941Z,32.77
2023-03-03T11:09:37.710Z,38.60
2023-03-03T11:12:15.461Z,34.83
2023-03-03T11:14:49.122Z,36.50
2023-03-03T11:17:26.100Z,32.83
2023-03-03T11:20:04.844Z,37.17
2023-03-03T11:22:40.307Z,36.33
2023-03-03T11:25:25.744Z,32.50
2023-03-03T11:28:18.979Z,39.73
2023-03-03T11:30:59.483Z,39.97
2023-03-03T11:33:37.090Z,43.87
2023-03-03T11:36:12.946Z,43.47
2023-03-03T11:38:55.238Z,47.10
2023-03-03T11:41:31.291Z,47.60
2023-03-03T11:44:06.180Z,53.77
2023-03-03T11:46:38.934Z,38.80
2023-03-03T11:49:15.480Z,53.27
2023-03-03T11:51:51.649Z,44.83
2023-03-03T11:54:24.028Z,46.83
2023-03-03T11:56:54.138Z,44.97
2023-03-03T11:59:42.690Z,42.43
2023-03-03T12:02:28.465Z,47.40
2023-03-03T12:05:05.872Z,43.23
2023-03-03T12:07:42.627Z,43.20
2023-03-03T12:10:21.549Z,41.67
2023-03-03T12:12:55.712Z,43.53
2023-03-03T12:15:32.605Z,36.47
2023-03-03T12:18:30.716Z,37.63
2023-03-03T12:21:13.212Z,34.70
2023-03-03T12:23:53.927Z,40.20
2023-03-03T12:26:28.937Z,35.87
2023-03-03T12:29:03.885Z,35.87
2023-03-03T12:31:45.598Z,34.50
2023-03-03T12:34:19.933Z,40.63
2023-03-03T12:37:32.502Z,40.53
2023-03-03T12:40:09.578Z,38.40
2023-03-03T12:42:58.803Z,32.83
2023-03-03T12:45:38.645Z,36.20
2023-03-03T12:48:10.869Z,31.43
2023-03-03T12:50:49.546Z,31.00
2023-03-03T12:53:32.259Z,31.97
2023-03-03T12:56:05.992Z,30.77
2023-03-03T12:58:46.502Z,31.03
2023-03-03T13:01:28.299Z,33.30
2023-03-03T13:04:05.651Z,35.00
2023-03-03T13:06:37.898Z,33.97
2023-03-03T13:09:20.583Z,40.20
2023-03-03T13:12:02.574Z,40.73
2023-03-03T13:14:36.727Z,41.73
2023-03-03T13:17:16.378Z,35.27
2023-03-03T13:19:50.553Z,35.97
2023-03-03T13:22:27.087Z,30.37
2023-03-03T13:25:01.151Z,32.50
2023-03-03T13:27:36.248Z,27.00
2023-03-03T13:30:15.590Z,28.97
2023-03-03T13:32:49.342Z,25.60
2023-03-03T13:35:28.245Z,22.73
2023-03-03T13:37:58.741Z,22.30
2023-03-03T13:40:29.778Z,22.43
2023-03-03T13:43:03.560Z,21.60
2023-03-03T13:45:42.531Z,24.63
2023-03-03T13:48:23.830Z,23.20
2023-03-03T13:50:56.308Z,19.33
2023-03-03T13:53:37.541Z,19.83
2023-03-03T13:56:20.254Z,16.63
2023-03-03T13:58:56.582Z,21.00
2023-03-03T14:01:32.230Z,25.33
2023-03-03T14:04:24.050Z,15.33
2023-03-03T14:06:58.464Z,19.67
2023-03-03T14:09:46.891Z,18.93
2023-03-03T14:12:27.127Z,19.97
2023-03-03T14:15:04.289Z,18.10
2023-03-03T14:17:38.856Z,22.57
2023-03-03T14:20:20.006Z,22.20
2023-03-03T14:22:52.136Z,18.30
2023-03-03T14:25:20.092Z,19.40
2023-03-03T14:28:12.755Z,20.70
2023-03-03T14:30:44.154Z,18.60
2023-03-03T14:33:27.265Z,19.70
2023-03-03T14:36:07.114Z,21.43
2023-03-03T14:38:47.753Z,24.50
2023-03-03T14:41:37.961Z,17.83
2023-03-03T14:44:27.002Z,20.00
2023-03-03T14:47:22.751Z,23.97
2023-03-03T14:49:51.883Z,15.80
2023-03-03T14:52:26.545Z,16.47
2023-03-03T14:54:56.548Z,19.90
2023-03-03T14:57:46.364Z,17.33
2023-03-03T15:00:35.226Z,21.07
2023-03-03T15:03:22.356Z,19.43
2023-03-03T15:05:51.293Z,18.77
2023-03-03T15:08:28.685Z,15.70
2023-03-03T15:10:59.972Z,25.23
2023-03-03T15:13:34.642Z,16.53
2023-03-03T15:16:12.060Z,21.90
2023-03-03T15:19:14.168Z,19.90
2023-03-03T15:21:54.218Z,16.23
2023-03-03T15:24:30.549Z,17.47
2023-03-03T15:27:02.473Z,20.67
2023-03-03T15:29:36.302Z,18.40
2023-03-03T15:32:13.911Z,16.60
2023-03-03T15:34:47.229Z,20.30
2023-03-03T15:37:39.034Z,18.30
2023-03-03T15:40:18.256Z,18.50
2023-03-03T15:42:50.121Z,21.77
2023-03-03T15:45:26.231Z,16.97
2023-03-03T15:48:14.108Z,18.50
2023-03-03T15:50:51.691Z,21.63
2023-03-03T15:53:45.557Z,19.10
2023-03-03T15:56:25.406Z,20.90
2023-03-03T15:59:10.077Z,16.70
2023-03-03T16:01:45.008Z,18.17
2023-03-03T16:04:16.652Z,16.43
2023-03-03T16:06:52.750Z,20.97
2023-03-03T16:09:32.896Z,16.67
2023-03-03T16:12:09.348Z,19.33
2023-03-03T16:14:48.347Z,22.20
2023-03-03T16:17:24.955Z,19.67
2023-03-03T16:20:03.948Z,17.80
2023-03-03T16:22:49.282Z,16.77
2023-03-03T16:25:33.955Z,20.77
2023-03-03T16:28:07.325Z,17.80
2023-03-03T16:30:40.586Z,22.80
2023-03-03T16:33:19.063Z,19.07
2023-03-03T16:35:56.830Z,17.57
2023-03-03T16:38:30.954Z,20.50
2023-03-03T16:41:01.825Z,19.37
2023-03-03T16:43:37.560Z,22.47
2023-03-03T16:46:16.117Z,19.00
2023-03-03T16:48:49.618Z,18.30
2023-03-03T16:51:27.414Z,19.47
2023-03-03T16:54:02.969Z,19.63
2023-03-03T16:56:39.684Z,20.37
2023-03-03T16:59:33.657Z,18.33
2023-03-03T17:02:11.405Z,20.23
2023-03-03T17:04:44.564Z,19.57
2023-03-03T17:07:23.193Z,23.07
2023-03-03T17:10:04.289Z,26.93
2023-03-03T17:12:47.826Z,27.87
2023-03-03T17:15:33.303Z,22.33
2023-03-03T17:18:10.089Z,21.57
2023-03-03T17:20:44.845Z,20.70
2023-03-03T17:23:26.019Z,20.20
2023-03-03T17:26:05.760Z,23.43
2023-03-03T17:28:46.042Z,19.63
2023-03-03T17:31:22.410Z,27.27
2023-03-03T17:34:04.411Z,26.40
2023-03-03T17:36:45.337Z,26.40
2023-03-03T17:39:45.136Z,23.23
2023-03-03T17:42:19.289Z,22.63
2023-03-03T17:44:56.806Z,26.83
2023-03-03T17:47:39.696Z,25.23
2023-03-03T17:50:21.997Z,27.33
2023-03-03T17:53:13.474Z,24.50
2023-03-03T17:55:54.720Z,26.33
2023-03-03T17:58:44.779Z,24.73
2023-03-03T18:01:27.784Z,24.87
2023-03-03T18:04:19.031Z,25.70
2023-03-03T18:07:10.706Z,22.07
2023-03-03T18:09:52.885Z,21.37
2023-03-03T18:12:31.680Z,21.10
2023-03-03T18:15:16.005Z,23.53
2023-03-03T18:18:03.493Z,20.07
2023-03-03T18:20:46.957Z,24.60
2023-03-03T18:23:30.650Z,25.07
2023-03-03T18:25:59.921Z,26.33
2023-03-03T18:28:46.583Z,20.67
2023-03-03T18:31:24.959Z,22.60
2023-03-03T18:34:08.047Z,22.93
2023-03-03T18:36:38.474Z,24.43
2023-03-03T18:39:07.218Z,21.43
2023-03-03T18:41:55.634Z,20.50
2023-03-03T18:44:30.165Z,21.60
2023-03-03T18:46:59.351Z,20.63
2023-03-03T18:49:55.525Z,22.70
2023-03-03T18:52:26.961Z,22.90
2023-03-03T18:55:23.405Z,21.43
2023-03-03T18:58:28.637Z,22.43
2023-03-03T19:01:01.038Z,22.17
2023-03-03T19:03:34.080Z,18.97
2023-03-03T19:06:02.721Z,19.83
2023-03-03T19:08:43.494Z,25.63
2023-03-03T19:11:33.229Z,21.00
2023-03-03T19:14:25.542Z,19.87
2023-03-03T19:16:55.599Z,19.07
2023-03-03T19:19:25.992Z,18.03
2023-03-03T19:22:22.040Z,18.93
2023-03-03T19:25:18.351Z,20.30
2023-03-03T19:27:52.817Z,20.00
2023-03-03T19:30:46.010Z,18.57
2023-03-03T19:33:39.224Z,21.40
2023-03-03T19:36:30.377Z,19.50
2023-03-03T19:39:07.981Z,17.47
2023-03-03T19:41:52.630Z,18.50
2023-03-03T19:44:44.645Z,23.37
2023-03-03T19:47:29.588Z,18.30
2023-03-03T19:50:11.266Z,22.10
2023-03-03T19:52:47.258Z,22.90
2023-03-03T19:55:31.130Z,23.57
2023-03-03T19:58:07.596Z,23.73
2023-03-03T20:00:42.077Z,19.67
2023-03-03T20:03:56.689Z,24.30
2023-03-03T20:06:40.757Z,22.30
2023-03-03T20:09:20.622Z,24.47
2023-03-03T20:12:01.341Z,25.57
2023-03-03T20:14:45.789Z,31.20
2023-03-03T20:17:45.107Z,23.60
2023-03-03T20:20:35.510Z,25.40
2023-03-03T20:23:16.346Z,26.37
2023-03-03T20:25:47.641Z,27.53
2023-03-03T20:28:41.692Z,26.20
2023-03-03T20:31:19.493Z,26.63
2023-03-03T20:33:59.928Z,29.43
2023-03-03T20:36:37.491Z,26.80
2023-03-03T20:39:10.341Z,26.97
2023-03-03T20:41:51.462Z,24.40
2023-03-03T20:44:30.351Z,23.70
2023-03-03T20:47:03.391Z,21.67
2023-03-03T20:49:50.455Z,19.10
2023-03-03T20:52:26.357Z,23.30
2023-03-03T20:55:05.057Z,26.33
2023-03-03T20:57:38.520Z,20.00
2023-03-03T21:00:11.525Z,28.20
2023-03-03T21:02:43.374Z,23.20
2023-03-03T21:05:14.261Z,22.90
2023-03-03T21:07:52.770Z,19.20
2023-03-03T21:10:24.816Z,19.27
2023-03-03T21:12:54.015Z,18.57
2023-03-03T21:15:31.095Z,20.60
2023-03-03T21:18:00.071Z,25.10
2023-03-03T21:20:34.675Z,21.23
2023-03-03T21:23:03.713Z,18.63
2023-03-03T21:25:48.706Z,18.53
2023-03-03T21:28:22.557Z,19.53
2023-03-03T21:31:05.044Z,23.40
2023-03-03T21:34:00.011Z,21.40
2023-03-03T21:36:46.253Z,25.93
2023-03-03T21:39:25.610Z,21.03
2023-03-03T21:41:57.380Z,21.50
2023-03-03T21:44:34.537Z,20.90
2023-03-03T21:47:02.739Z,18.43
2023-03-03T21:49:30.683Z,22.13
2023-03-03T21:51:59.779Z,20.67
2023-03-03T21:54:30.469Z,17.30
2023-03-03T21:56:59.518Z,16.37
2023-03-03T21:59:27.257Z,20.83
2023-03-03T22:01:57.286Z,17.70
2023-03-03T22:04:25.068Z,17.70
2023-03-03T22:06:53.422Z,22.23
2023-03-03T22:09:21.175Z,19.20
2023-03-03T22:11:50.541Z,20.73
2023-03-03T22:14:20.889Z,20.20
2023-03-03T22:16:48.663Z,18.50
2023-03-03T22:19:17.797Z,17.07
2023-03-03T22:21:46.742Z,18.97
2023-03-03T22:24:17.261Z,16.40
2023-03-03T22:26:44.982Z,19.13
2023-03-03T22:29:16.818Z,18.10
2023-03-03T22:31:47.032Z,16.60
2023-03-03T22:34:14.734Z,16.53
2023-03-03T22:36:42.431Z,15.23
2023-03-03T22:39:10.412Z,16.80
2023-03-03T22:41:39.012Z,20.60
2023-03-03T22:44:06.712Z,18.83
2023-03-03T22:46:34.759Z,15.83
2023-03-03T22:49:04.050Z,16.30
2023-03-03T22:51:31.789Z,16.43
2023-03-03T22:54:02.760Z,17.03
2023-03-03T22:56:30.717Z,18.83
2023-03-03T22:58:58.433Z,17.70
2023-03-03T23:01:26.233Z,15.93
2023-03-03T23:03:57.157Z,19.47
2023-03-03T23:06:26.225Z,18.80
2023-03-03T23:08:54.130Z,18.50
2023-03-03T23:11:22.516Z,16.33
2023-03-03T23:13:53.285Z,15.80
2023-03-03T23:16:21.369Z,21.67
2023-03-03T23:18:49.109Z,19.67
2023-03-03T23:21:17.329Z,17.70
2023-03-03T23:23:46.424Z,18.37
2023-03-03T23:26:14.181Z,15.40
2023-03-03T23:28:41.878Z,17.57
2023-03-03T23:31:09.553Z,16.60
2023-03-03T23:33:37.354Z,20.97
2023-03-03T23:36:05.463Z,19.30
2023-03-03T23:38:33.149Z,18.27
2023-03-03T23:41:02.173Z,21.17
2023-03-03T23:43:29.962Z,17.90
2023-03-03T23:45:57.653Z,21.73
2023-03-03T23:48:25.556Z,18.30
2023-03-03T23:50:53.301Z,22.23
2023-03-03T23:53:21.005Z,23.10
2023-03-03T23:55:48.735Z,16.70
2023-03-03T23:58:17.806Z,16.70
